Time;durP1;ratioP1;P1;durP2;ratioP2;P2;SDS_P1;SDS_P2;PMS_P1;PMS_P2;Temp;Humidity;BMP_temperature;BMP_pressure;BME280_temperature;BME280_humidity;BME280_pressure;Samples;Min_cycle;Max_cycle;Signal;HPM_P1;HPM_P2
2022/10/25 00:01:15;;;;;;;;;;;;;;;26.13;34.18;101114.13;4980680;28;1117;-29
2022/10/25 00:03:41;;;;;;;;;;;;;;;26.07;34.34;101107.59;4963075;28;1161;-29
2022/10/25 00:06:07;;;;;;;;;;;;;;;26.07;34.42;101094.09;4980549;28;1221;-29
2022/10/25 00:08:33;;;;;;;;;;;;;;;26.02;34.49;101097.31;4991714;28;1894;-29
2022/10/25 00:10:58;;;;;;;;;;;;;;;26.06;34.45;101099.66;4980859;28;1090;-29
2022/10/25 00:13:23;;;;;;;;;;;;;;;26.12;34.46;101094.44;4980206;28;1225;-29
2022/10/25 00:15:48;;;;;;;;;;;;;;;26.07;34.29;101102.19;4980550;28;1082;-29
2022/10/25 00:18:14;;;;;;;;;;;;;;;26.06;34.16;101103.19;4980428;28;1244;-29
2022/10/25 00:20:39;;;;;;;;;;;;;;;26.03;34.15;101096.28;4980160;28;956;-29
2022/10/25 00:23:04;;;;;;;;;;;;;;;26.04;34.40;101086.34;4980181;28;1168;-29
2022/10/25 00:25:30;;;;;;;;;;;;;;;26.13;34.25;101095.25;4979984;28;1130;-29
2022/10/25 00:27:55;;;;;;;;;;;;;;;26.11;34.37;101090.03;4980162;28;1983;-29
2022/10/25 00:30:20;;;;;;;;;;;;;;;26.11;34.13;101086.53;4980197;28;1138;-29
2022/10/25 00:32:45;;;;;;;;;;;;;;;26.06;34.08;101078.09;4979934;28;1158;-29
2022/10/25 00:35:11;;;;;;;;;;;;;;;26.08;34.25;101081.44;4979620;28;1141;-29
2022/10/25 00:37:36;;;;;;;;;;;;;;;26.15;34.31;101075.22;4979966;28;1149;-29
2022/10/25 00:40:02;;;;;;;;;;;;;;;26.09;34.21;101075.88;4980355;28;1125;-29
2022/10/25 00:42:27;;;;;;;;;;;;;;;26.14;34.02;101078.91;4979564;28;1145;-29
2022/10/25 00:44:56;;;;;;;;;;;;;;;26.06;34.45;101080.78;4990192;28;1090;-29
2022/10/25 00:47:21;;;;;;;;;;;;;;;26.04;34.53;101078.25;4979702;28;1907;-29
2022/10/25 00:49:46;;;;;;;;;;;;;;;26.02;34.40;101072.19;4979627;28;1215;-31
2022/10/25 00:52:12;;;;;;;;;;;;;;;26.03;34.58;101073.88;4980110;28;1244;-30
2022/10/25 00:54:38;;;;;;;;;;;;;;;26.12;34.00;101062.09;4979521;28;1150;-29
2022/10/25 00:57:05;;;;;;;;;;;;;;;26.02;34.59;101066.81;4988678;28;975;-29
2022/10/25 00:59:30;;;;;;;;;;;;;;;26.07;34.10;101067.16;4962591;28;1212;-29
2022/10/25 01:01:55;;;;;;;;;;;;;;;26.02;34.42;101059.56;4961950;28;1201;-29
2022/10/25 01:04:21;;;;;;;;;;;;;;;26.00;34.28;101066.13;4961914;28;1248;-29
2022/10/25 01:06:47;;;;;;;;;;;;;;;26.07;34.45;101060.91;4962018;28;1910;-29
2022/10/25 01:09:18;;;;;;;;;;;;;;;26.13;34.02;101060.22;4986682;28;1621;-29
2022/10/25 01:11:43;;;;;;;;;;;;;;;26.06;34.59;101060.03;4979103;28;1145;-29
2022/10/25 01:14:09;;;;;;;;;;;;;;;26.07;34.49;101053.66;4979140;28;1149;-29
2022/10/25 01:16:53;;;;;;;;;;;;;;;26.09;34.55;101061.56;4962412;28;1126;-30
2022/10/25 01:19:37;;;;;;;;;;;;;;;26.04;34.34;101057.53;4979279;28;1165;-29
2022/10/25 01:22:10;;;;;;;;;;;;;;;26.03;34.25;101053.16;4986535;28;1161;-29
2022/10/25 01:24:54;;;;;;;;;;;;;;;26.01;34.55;101048.91;4962018;28;1178;-30
2022/10/25 01:27:27;;;;;;;;;;;;;;;25.99;34.68;101046.41;4978712;28;1910;-29
2022/10/25 01:30:10;;;;;;;;;;;;;;;26.04;34.59;101056.69;4949301;28;1181;-29
2022/10/25 01:32:35;;;;;;;;;;;;;;;25.96;34.37;101049.44;4986942;28;1181;-29
2022/10/25 01:35:04;;;;;;;;;;;;;;;25.96;34.49;101052.13;4979523;28;1158;-29
2022/10/25 01:37:38;;;;;;;;;;;;;;;25.94;34.61;101053.31;4978665;28;1224;-29
2022/10/25 01:40:08;;;;;;;;;;;;;;;26.02;34.64;101051.47;4966320;28;1043;-29
2022/10/25 01:42:33;;;;;;;;;;;;;;;26.05;34.35;101061.06;4961522;28;1204;-30
2022/10/25 01:44:58;;;;;;;;;;;;;;;26.03;34.31;101057.69;4978698;28;1205;-30
2022/10/25 01:47:24;;;;;;;;;;;;;;;26.04;34.17;101057.53;4978807;28;1890;-30
2022/10/25 01:49:51;;;;;;;;;;;;;;;26.06;34.41;101059.22;4961404;28;1205;-30
2022/10/25 01:52:20;;;;;;;;;;;;;;;26.02;34.25;101056.00;4961022;28;1162;-30
2022/10/25 01:54:45;;;;;;;;;;;;;;;25.99;34.25;101059.06;4977858;28;1280;-30
2022/10/25 01:57:29;;;;;;;;;;;;;;;26.00;34.67;101047.25;4983637;28;943;-30
2022/10/25 02:00:14;;;;;;;;;;;;;;;26.01;34.55;101052.47;4961062;28;1190;-29
2022/10/25 02:02:42;;;;;;;;;;;;;;;25.98;34.67;101051.97;4978381;28;1248;-29
2022/10/25 02:05:07;;;;;;;;;;;;;;;25.99;34.28;101045.56;4978020;28;1216;-29
2022/10/25 02:07:42;;;;;;;;;;;;;;;26.03;34.60;101044.22;4978020;28;1959;-29
2022/10/25 02:10:37;;;;;;;;;;;;;;;26.10;34.52;101044.38;4974762;28;1197;-29
2022/10/25 02:13:13;;;;;;;;;;;;;;;25.98;34.66;101047.41;4962544;28;1366;-29
2022/10/25 02:15:39;;;;;;;;;;;;;;;25.97;34.23;101032.25;4978314;28;1185;-29
2022/10/25 02:18:05;;;;;;;;;;;;;;;26.01;34.76;101040.84;4978000;28;1133;-29
2022/10/25 02:20:32;;;;;;;;;;;;;;;26.06;34.48;101037.66;4966875;28;1170;-29
2022/10/25 02:22:57;;;;;;;;;;;;;;;26.00;34.59;101033.78;4947186;28;1289;-29
2022/10/25 02:25:23;;;;;;;;;;;;;;;25.93;34.51;101036.28;4960891;28;1134;-29
2022/10/25 02:27:49;;;;;;;;;;;;;;;25.96;34.75;101035.97;4977242;28;1910;-29
2022/10/25 02:30:14;;;;;;;;;;;;;;;26.00;34.59;101031.94;4960908;28;1178;-29
2022/10/25 02:32:39;;;;;;;;;;;;;;;26.01;34.58;101033.59;4965282;28;1288;-29
2022/10/25 02:35:05;;;;;;;;;;;;;;;25.95;34.75;101025.34;4978042;28;1158;-29
2022/10/25 02:37:31;;;;;;;;;;;;;;;25.97;34.62;101026.88;4960758;28;1177;-29
2022/10/25 02:39:57;;;;;;;;;;;;;;;25.99;34.42;101027.53;4977435;28;1222;-29
2022/10/25 02:42:22;;;;;;;;;;;;;;;25.90;34.69;101029.41;4960629;28;1237;-29
2022/10/25 02:44:47;;;;;;;;;;;;;;;26.03;34.54;101028.03;4963548;28;1272;-29
2022/10/25 02:47:12;;;;;;;;;;;;;;;25.97;34.66;101023.31;4977619;28;1898;-29
2022/10/25 02:49:38;;;;;;;;;;;;;;;25.96;34.62;101017.09;4977290;28;1134;-29
2022/10/25 02:52:03;;;;;;;;;;;;;;;25.91;34.51;101033.78;4977664;28;1146;-29
2022/10/25 02:54:28;;;;;;;;;;;;;;;25.97;34.38;101034.97;4977688;28;1149;-29
2022/10/25 02:56:54;;;;;;;;;;;;;;;25.97;34.42;101029.56;4978994;28;1288;-29
2022/10/25 02:59:20;;;;;;;;;;;;;;;26.02;34.55;101031.75;4977403;28;1177;-29
2022/10/25 03:01:45;;;;;;;;;;;;;;;25.96;34.38;101035.97;4977470;28;1279;-29
2022/10/25 03:04:10;;;;;;;;;;;;;;;25.94;34.47;101031.75;4978167;28;1090;-29
2022/10/25 03:06:35;;;;;;;;;;;;;;;25.96;34.46;101030.56;4981885;28;1867;-29
2022/10/25 03:09:01;;;;;;;;;;;;;;;25.97;34.61;101036.81;4977221;28;902;-29
2022/10/25 03:11:26;;;;;;;;;;;;;;;25.89;34.70;101033.09;4977135;28;1137;-29
2022/10/25 03:13:51;;;;;;;;;;;;;;;25.81;33.76;101033.09;4977702;28;1259;-27
2022/10/25 03:16:17;;;;;;;;;;;;;;;25.21;32.25;101032.28;4977441;28;1220;-28
2022/10/25 03:18:42;;;;;;;;;;;;;;;24.98;32.25;101025.63;4977446;28;1189;-27
2022/10/25 03:21:07;;;;;;;;;;;;;;;24.81;32.39;101025.50;4979793;28;1129;-28
2022/10/25 03:23:33;;;;;;;;;;;;;;;24.60;32.33;101015.16;4959225;28;1217;-28
2022/10/25 03:25:58;;;;;;;;;;;;;;;24.42;32.70;101023.28;4957841;28;1472;-28
2022/10/25 03:28:23;;;;;;;;;;;;;;;24.36;32.77;101024.75;4968627;28;1919;-28
2022/10/25 03:30:49;;;;;;;;;;;;;;;24.31;32.79;101016.31;4977047;28;1236;-28
2022/10/25 03:33:14;;;;;;;;;;;;;;;24.27;32.96;101007.72;4967086;28;1186;-28
2022/10/25 03:35:39;;;;;;;;;;;;;;;24.32;32.80;101004.56;4982448;28;1172;-28
2022/10/25 03:38:04;;;;;;;;;;;;;;;24.29;32.75;101002.19;4977284;28;1265;-28
2022/10/25 03:40:30;;;;;;;;;;;;;;;24.20;32.71;101006.66;4975552;28;1486;-28
2022/10/25 03:42:55;;;;;;;;;;;;;;;24.16;32.70;101000.75;4980649;28;2535;-28
2022/10/25 03:45:20;;;;;;;;;;;;;;;24.00;32.69;101003.28;4968545;28;1940;-28
2022/10/25 03:47:46;;;;;;;;;;;;;;;23.80;32.78;100993.56;4992871;28;2402;-27
2022/10/25 03:50:11;;;;;;;;;;;;;;;23.70;33.04;100985.59;4992127;28;1860;-28
2022/10/25 03:52:36;;;;;;;;;;;;;;;23.88;32.89;100995.47;4971860;28;2022;-28
2022/10/25 03:55:02;;;;;;;;;;;;;;;24.11;32.77;100991.47;4985396;28;2182;-28
2022/10/25 03:57:27;;;;;;;;;;;;;;;24.08;32.80;100985.38;4981702;28;2217;-28
2022/10/25 03:59:52;;;;;;;;;;;;;;;24.14;32.70;100991.97;4976215;28;1142;-28
2022/10/25 04:02:18;;;;;;;;;;;;;;;24.07;32.96;100988.22;4959464;28;1142;-28
2022/10/25 04:04:43;;;;;;;;;;;;;;;24.00;32.97;100990.69;4976090;28;1193;-28
2022/10/25 04:07:08;;;;;;;;;;;;;;;24.05;32.67;100988.38;4976284;28;1902;-28
2022/10/25 04:09:33;;;;;;;;;;;;;;;24.08;32.57;100985.38;4976873;28;944;-28
2022/10/25 04:11:59;;;;;;;;;;;;;;;24.19;32.92;100983.47;4989752;28;1094;-28
2022/10/25 04:14:24;;;;;;;;;;;;;;;24.20;32.88;100988.69;4976967;28;1204;-28
2022/10/25 04:16:49;;;;;;;;;;;;;;;24.16;32.94;100983.75;4976587;28;1142;-28
2022/10/25 04:19:15;;;;;;;;;;;;;;;24.11;33.12;100986.91;4979344;28;1177;-28
2022/10/25 04:21:40;;;;;;;;;;;;;;;24.04;33.28;100984.00;4987699;28;1204;-27
2022/10/25 04:24:05;;;;;;;;;;;;;;;24.03;33.25;100978.78;4984685;28;1326;-28
2022/10/25 04:26:33;;;;;;;;;;;;;;;24.03;33.17;100976.94;4984836;28;1853;-28
2022/10/25 04:28:59;;;;;;;;;;;;;;;24.05;33.13;100982.16;4986295;28;1902;-28
2022/10/25 04:31:24;;;;;;;;;;;;;;;24.05;32.96;100979.47;4979561;28;1184;-28
2022/10/25 04:33:49;;;;;;;;;;;;;;;24.07;32.98;100983.69;4974962;28;1184;-28
2022/10/25 04:36:15;;;;;;;;;;;;;;;24.12;33.02;100975.16;4970759;28;939;-28
2022/10/25 04:38:40;;;;;;;;;;;;;;;24.07;33.08;100972.94;4979003;28;1114;-27
2022/10/25 04:41:06;;;;;;;;;;;;;;;24.04;33.22;100972.44;4978859;28;987;-28
2022/10/25 04:43:31;;;;;;;;;;;;;;;24.06;33.33;100973.94;4978031;28;1162;-28
2022/10/25 04:45:58;;;;;;;;;;;;;;;24.05;33.28;100972.28;4978774;28;1078;-28
2022/10/25 04:48:23;;;;;;;;;;;;;;;24.04;33.33;100970.56;4978945;28;1899;-27
2022/10/25 04:50:49;;;;;;;;;;;;;;;24.03;33.11;100976.94;4979209;28;1193;-27
2022/10/25 04:53:14;;;;;;;;;;;;;;;24.03;33.13;100970.72;4978842;28;1103;-28
2022/10/25 04:55:39;;;;;;;;;;;;;;;24.00;33.31;100977.25;4978473;28;1118;-28
2022/10/25 04:58:04;;;;;;;;;;;;;;;24.02;33.34;100975.28;4981898;28;2196;-28
2022/10/25 05:00:30;;;;;;;;;;;;;;;24.02;33.29;100977.09;4971825;28;819;-28
2022/10/25 05:02:55;;;;;;;;;;;;;;;23.99;33.27;100982.78;4971636;28;1099;-28
2022/10/25 05:05:21;;;;;;;;;;;;;;;24.01;33.32;100978.09;4978571;28;1137;-28
2022/10/25 05:07:46;;;;;;;;;;;;;;;24.04;33.48;100985.88;4978394;28;1951;-28
2022/10/25 05:10:11;;;;;;;;;;;;;;;24.01;33.50;100978.94;4978536;28;1102;-28
2022/10/25 05:12:37;;;;;;;;;;;;;;;24.05;33.44;100985.72;4942356;28;1056;-28
2022/10/25 05:15:02;;;;;;;;;;;;;;;24.43;33.33;100985.47;4958101;28;1281;-27
2022/10/25 05:17:28;;;;;;;;;;;;;;;24.63;33.18;100990.63;4978695;28;1129;-28
2022/10/25 05:19:53;;;;;;;;;;;;;;;26.57;30.76;100985.34;4978284;28;1102;-28
2022/10/25 05:22:18;;;;;;;;;;;;;;;30.02;25.80;100993.25;4978704;28;1154;-27
2022/10/25 05:24:44;;;;;;;;;;;;;;;31.08;24.37;101000.53;4977032;28;1126;-28
2022/10/25 05:27:09;;;;;;;;;;;;;;;29.54;26.61;100997.41;4986051;28;1916;-28
2022/10/25 05:29:34;;;;;;;;;;;;;;;30.48;25.46;100993.78;4959990;28;1142;-27
2022/10/25 05:32:00;;;;;;;;;;;;;;;30.73;25.36;100995.97;4978608;28;1224;-27
2022/10/25 05:34:26;;;;;;;;;;;;;;;30.86;25.13;101005.28;4977427;28;892;-27
2022/10/25 05:36:51;;;;;;;;;;;;;;;31.25;24.52;101003.72;4978549;28;1205;-27
2022/10/25 05:39:16;;;;;;;;;;;;;;;31.01;25.01;101002.41;4977992;28;1106;-29
2022/10/25 05:41:42;;;;;;;;;;;;;;;31.14;24.89;101016.03;4978073;28;1114;-28
2022/10/25 05:44:07;;;;;;;;;;;;;;;31.48;24.41;101021.56;4977667;28;1184;-27
2022/10/25 05:46:32;;;;;;;;;;;;;;;31.10;24.98;101019.34;4977723;28;988;-27
2022/10/25 05:48:58;;;;;;;;;;;;;;;31.13;24.98;101024.41;4978196;28;1978;-28
2022/10/25 05:51:27;;;;;;;;;;;;;;;31.25;24.86;101030.06;4960683;28;1134;-28
2022/10/25 05:53:53;;;;;;;;;;;;;;;31.31;24.82;101029.25;4977577;28;1154;-27
2022/10/25 05:56:19;;;;;;;;;;;;;;;31.33;24.84;101024.44;4980241;28;1857;-27
2022/10/25 05:58:44;;;;;;;;;;;;;;;31.10;25.30;101022.06;4986320;28;900;-28
2022/10/25 06:01:10;;;;;;;;;;;;;;;30.68;25.86;101034.59;4978140;28;1138;-28
2022/10/25 06:03:35;;;;;;;;;;;;;;;30.35;26.40;101032.53;4977918;28;1110;-28
2022/10/25 06:06:01;;;;;;;;;;;;;;;30.02;26.91;101031.22;4976843;28;1539;-29
2022/10/25 06:08:27;;;;;;;;;;;;;;;29.83;27.37;101030.00;4977433;28;1894;-28
2022/10/25 06:10:52;;;;;;;;;;;;;;;29.64;27.51;101020.66;4981922;28;1133;-28
2022/10/25 06:13:19;;;;;;;;;;;;;;;29.65;27.36;101020.47;4986731;28;1176;-27
2022/10/25 06:15:44;;;;;;;;;;;;;;;30.10;26.89;101027.50;4976997;28;1176;-28
2022/10/25 06:18:09;;;;;;;;;;;;;;;29.73;27.53;101022.19;4977472;28;1178;-29
2022/10/25 06:20:35;;;;;;;;;;;;;;;29.83;27.58;101024.56;4977181;28;1141;-29
2022/10/25 06:23:00;;;;;;;;;;;;;;;29.58;27.65;101024.94;4977181;28;1255;-29
2022/10/25 06:25:25;;;;;;;;;;;;;;;29.65;27.66;101025.88;4976263;28;1186;-27
2022/10/25 06:27:50;;;;;;;;;;;;;;;29.32;28.18;101023.66;4989242;28;1903;-29
2022/10/25 06:30:16;;;;;;;;;;;;;;;29.96;27.46;101020.31;4944345;28;1131;-29
2022/10/25 06:32:41;;;;;;;;;;;;;;;29.24;28.46;101018.34;4957886;28;1276;-29
2022/10/25 06:35:06;;;;;;;;;;;;;;;29.11;28.33;101019.88;4970790;28;1145;-28
2022/10/25 06:37:32;;;;;;;;;;;;;;;29.31;28.64;101014.66;4975648;28;1125;-29
2022/10/25 06:39:57;;;;;;;;;;;;;;;29.20;28.36;101010.59;4957522;28;1308;-28
2022/10/25 06:42:22;;;;;;;;;;;;;;;28.92;28.94;101011.28;4966626;28;1126;-28
2022/10/25 06:44:47;;;;;;;;;;;;;;;28.64;29.16;101009.25;4960038;28;1186;-28
2022/10/25 06:47:13;;;;;;;;;;;;;;;29.43;28.09;101000.59;4975001;28;1898;-28
2022/10/25 06:49:38;;;;;;;;;;;;;;;28.76;29.15;101011.50;4970241;28;973;-28
2022/10/25 06:52:03;;;;;;;;;;;;;;;28.65;29.26;101004.66;4960486;28;1222;-28
2022/10/25 06:54:29;;;;;;;;;;;;;;;29.49;28.07;101005.28;4963949;28;1115;-27
2022/10/25 06:56:54;;;;;;;;;;;;;;;28.69;29.00;101014.09;4984724;28;1809;-28
2022/10/25 06:59:19;;;;;;;;;;;;;;;28.43;29.73;101002.72;4977419;28;1129;-27
2022/10/25 07:01:45;;;;;;;;;;;;;;;29.21;28.74;101004.13;4976561;28;898;-27
2022/10/25 07:04:10;;;;;;;;;;;;;;;28.76;29.01;101004.19;4976602;28;1099;-27
2022/10/25 07:06:36;;;;;;;;;;;;;;;28.47;29.33;101001.31;4977182;28;1090;-27
2022/10/25 07:09:01;;;;;;;;;;;;;;;28.30;29.50;101000.63;4975868;28;1968;-27
2022/10/25 07:11:27;;;;;;;;;;;;;;;29.11;28.74;101000.06;4985350;28;1233;-27
2022/10/25 07:13:53;;;;;;;;;;;;;;;28.63;29.23;100999.44;4981210;28;1129;-27
2022/10/25 07:16:19;;;;;;;;;;;;;;;28.63;29.21;100994.03;4970214;28;1118;-27
2022/10/25 07:18:44;;;;;;;;;;;;;;;29.36;28.40;100995.16;4957089;28;1570;-27
2022/10/25 07:21:10;;;;;;;;;;;;;;;28.81;28.95;101001.75;4961812;28;1304;-27
2022/10/25 07:23:40;;;;;;;;;;;;;;;28.47;29.57;100997.78;4976015;28;1046;-27
2022/10/25 07:26:06;;;;;;;;;;;;;;;28.37;29.69;100992.63;4965260;28;1927;-28
2022/10/25 07:28:32;;;;;;;;;;;;;;;28.25;29.76;100994.94;4986691;28;1942;-27
2022/10/25 07:30:57;;;;;;;;;;;;;;;28.87;29.13;100994.75;4976489;28;1087;-27
2022/10/25 07:33:22;;;;;;;;;;;;;;;28.55;29.57;100999.53;4976758;28;1125;-28
2022/10/25 07:35:48;;;;;;;;;;;;;;;28.28;30.04;100988.31;4976289;28;933;-27
2022/10/25 07:38:13;;;;;;;;;;;;;;;28.22;30.00;100990.75;4975971;28;1118;-28
2022/10/25 07:40:38;;;;;;;;;;;;;;;28.14;29.92;100984.56;4976490;28;1153;-28
2022/10/25 07:43:04;;;;;;;;;;;;;;;28.14;30.15;100981.84;4961548;28;1165;-28
2022/10/25 07:45:29;;;;;;;;;;;;;;;28.17;29.96;100989.59;4966322;28;1237;-28
2022/10/25 07:47:54;;;;;;;;;;;;;;;28.19;30.18;100992.97;4976309;28;1961;-28
2022/10/25 07:50:20;;;;;;;;;;;;;;;28.15;30.03;100983.53;4976237;28;1165;-28
2022/10/25 07:52:45;;;;;;;;;;;;;;;28.18;29.74;100984.00;4977209;28;835;-28
2022/10/25 07:55:11;;;;;;;;;;;;;;;28.13;29.98;100982.88;4975105;28;1118;-27
2022/10/25 07:57:36;;;;;;;;;;;;;;;28.22;30.15;100979.06;4977221;28;2102;-28
2022/10/25 08:00:01;;;;;;;;;;;;;;;28.24;29.79;100985.13;4979900;28;1130;-28
2022/10/25 08:02:27;;;;;;;;;;;;;;;28.26;29.71;100974.94;4979483;28;1216;-28
2022/10/25 08:04:52;;;;;;;;;;;;;;;28.24;29.78;100977.84;4979281;28;1077;-28
2022/10/25 08:07:17;;;;;;;;;;;;;;;28.20;30.04;100973.00;4978991;28;1906;-27
2022/10/25 08:09:42;;;;;;;;;;;;;;;28.23;29.72;100969.91;4978787;28;1308;-28
2022/10/25 08:12:08;;;;;;;;;;;;;;;28.39;30.07;100966.25;4979764;28;1249;-29
2022/10/25 08:14:33;;;;;;;;;;;;;;;28.33;29.96;100964.25;4979752;28;1150;-28
2022/10/25 08:16:58;;;;;;;;;;;;;;;28.31;29.75;100958.19;4979555;28;1216;-29
2022/10/25 08:19:24;;;;;;;;;;;;;;;28.38;29.90;100958.31;4979384;28;1164;-27
2022/10/25 08:21:50;;;;;;;;;;;;;;;28.34;29.75;100960.56;4963585;28;1225;-27
2022/10/25 08:24:15;;;;;;;;;;;;;;;28.28;29.83;100953.16;4969914;28;1131;-27
2022/10/25 08:26:41;;;;;;;;;;;;;;;28.27;30.02;100951.47;4986137;28;1800;-28
2022/10/25 08:29:06;;;;;;;;;;;;;;;28.30;30.04;100945.66;4981893;28;1989;-28
2022/10/25 08:31:31;;;;;;;;;;;;;;;28.31;29.63;100948.19;4979589;28;1173;-28
2022/10/25 08:33:57;;;;;;;;;;;;;;;28.31;29.98;100950.06;4979365;28;1087;-29
2022/10/25 08:36:24;;;;;;;;;;;;;;;28.27;30.25;100937.94;4979084;28;877;-27
2022/10/25 08:38:49;;;;;;;;;;;;;;;28.30;29.76;100935.69;4979236;28;1138;-27
2022/10/25 08:41:31;;;;;;;;;;;;;;;28.31;29.91;100937.38;4979465;28;1113;-27
2022/10/25 08:43:59;;;;;;;;;;;;;;;28.29;30.04;100931.31;4979022;28;1148;-27
2022/10/25 08:46:27;;;;;;;;;;;;;;;28.39;29.56;100933.78;4979267;28;1268;-28
2022/10/25 08:49:03;;;;;;;;;;;;;;;28.38;30.09;100931.25;4978935;28;1906;-28
2022/10/25 08:51:28;;;;;;;;;;;;;;;28.37;29.96;100922.28;4943943;28;1162;-28
2022/10/25 08:53:55;;;;;;;;;;;;;;;28.46;29.84;100925.75;4961337;28;1138;-28
2022/10/25 08:56:21;;;;;;;;;;;;;;;28.50;29.47;100927.03;4966041;28;1933;-28
2022/10/25 08:58:51;;;;;;;;;;;;;;;28.52;29.50;100925.00;4966114;28;1157;-28
2022/10/25 09:01:36;;;;;;;;;;;;;;;28.56;29.34;100923.56;4978582;28;1086;-28
2022/10/25 09:04:02;;;;;;;;;;;;;;;28.63;29.55;100923.66;4978209;28;1225;-28
2022/10/25 09:06:27;;;;;;;;;;;;;;;28.64;29.37;100916.38;4945307;28;1162;-28
2022/10/25 09:08:56;;;;;;;;;;;;;;;28.68;29.28;100918.50;4978043;28;1898;-28
2022/10/25 09:11:40;;;;;;;;;;;;;;;29.63;28.92;100922.22;4986794;28;1090;-28
2022/10/25 09:14:24;;;;;;;;;;;;;;;29.15;29.15;100917.38;4981241;28;1197;-27
2022/10/25 09:16:50;;;;;;;;;;;;;;;28.93;29.19;100911.91;4973434;28;1169;-28
2022/10/25 09:19:28;;;;;;;;;;;;;;;28.95;29.39;100908.00;4958912;28;1277;-28
2022/10/25 09:22:00;;;;;;;;;;;;;;;28.88;29.30;100901.66;4960004;28;1160;-28
2022/10/25 09:24:28;;;;;;;;;;;;;;;28.92;29.20;100904.81;4961772;28;1281;-28
2022/10/25 09:27:00;;;;;;;;;;;;;;;28.86;29.24;100898.34;4976224;28;1903;-28
2022/10/25 09:29:48;;;;;;;;;;;;;;;28.88;29.28;100895.44;4978038;28;1225;-28
2022/10/25 09:32:19;;;;;;;;;;;;;;;28.92;29.37;100897.56;4967446;28;1718;-28
2022/10/25 09:34:44;;;;;;;;;;;;;;;28.93;29.43;100896.50;4974668;28;1205;-28
2022/10/25 09:37:17;;;;;;;;;;;;;;;29.07;28.93;100891.28;4978636;28;1206;-28
2022/10/25 09:39:46;;;;;;;;;;;;;;;29.16;29.13;100887.38;4977919;28;1051;-28
2022/10/25 09:42:31;;;;;;;;;;;;;;;29.18;29.07;100884.47;4977497;28;1102;-28
2022/10/25 09:45:01;;;;;;;;;;;;;;;29.03;28.97;100881.88;4977325;28;1400;-28
2022/10/25 09:47:32;;;;;;;;;;;;;;;29.08;29.04;100882.09;4948691;28;1961;-28
2022/10/25 09:50:16;;;;;;;;;;;;;;;29.20;28.91;100877.00;4960605;28;1230;-28
2022/10/25 09:53:13;;;;;;;;;;;;;;;29.39;29.00;100872.81;4978163;28;1098;-28
2022/10/25 09:55:41;;;;;;;;;;;;;;;30.14;28.38;100866.03;4954941;28;1186;-28
2022/10/25 09:58:17;;;;;;;;;;;;;;;29.27;29.03;100869.78;4982678;28;2164;-27
2022/10/25 10:00:43;;;;;;;;;;;;;;;28.96;29.30;100860.09;4977764;28;832;-29
2022/10/25 10:03:09;;;;;;;;;;;;;;;28.88;29.01;100862.94;4960274;28;1122;-28
2022/10/25 10:05:35;;;;;;;;;;;;;;;28.92;29.46;100856.94;4958700;28;1115;-28
2022/10/25 10:08:00;;;;;;;;;;;;;;;28.91;28.74;100857.13;4961161;28;1894;-28
2022/10/25 10:10:26;;;;;;;;;;;;;;;29.06;28.84;100848.97;4978449;28;1086;-28
2022/10/25 10:13:05;;;;;;;;;;;;;;;29.96;27.96;100858.44;4972152;28;1199;-28
2022/10/25 10:15:33;;;;;;;;;;;;;;;29.17;28.89;100840.31;4959437;28;1087;-28
2022/10/25 10:18:16;;;;;;;;;;;;;;;29.13;29.23;100851.75;4977095;28;1102;-27
2022/10/25 10:20:53;;;;;;;;;;;;;;;29.23;29.28;100844.09;4975893;28;1229;-28
2022/10/25 10:23:18;;;;;;;;;;;;;;;29.15;29.20;100839.69;4959136;28;1565;-28
2022/10/25 10:25:43;;;;;;;;;;;;;;;28.95;29.75;100834.03;4979329;28;944;-27
2022/10/25 10:28:11;;;;;;;;;;;;;;;29.81;28.65;100842.28;4958708;28;2514;-27
2022/10/25 10:30:37;;;;;;;;;;;;;;;28.96;29.94;100833.84;4959835;28;1130;-27
2022/10/25 10:33:05;;;;;;;;;;;;;;;28.82;29.90;100822.06;4959760;28;1142;-28
2022/10/25 10:35:31;;;;;;;;;;;;;;;28.87;29.82;100820.63;4976967;28;1126;-27
2022/10/25 10:38:26;;;;;;;;;;;;;;;29.63;29.12;100826.53;4977674;28;931;-27
2022/10/25 10:41:09;;;;;;;;;;;;;;;29.04;29.52;100824.81;4968146;28;1176;-29
2022/10/25 10:43:35;;;;;;;;;;;;;;;28.82;29.90;100819.34;4976670;28;1152;-27
2022/10/25 10:46:01;;;;;;;;;;;;;;;29.04;29.68;100815.81;4976832;28;1121;-27
2022/10/25 10:48:27;;;;;;;;;;;;;;;29.54;28.83;100812.25;4959413;28;1962;-28
2022/10/25 10:50:52;;;;;;;;;;;;;;;29.54;29.03;100826.66;4959186;28;1312;-29
2022/10/25 10:53:21;;;;;;;;;;;;;;;29.38;29.14;100816.94;4957922;28;1189;-29
2022/10/25 10:55:46;;;;;;;;;;;;;;;29.65;28.83;100819.88;4955817;28;1280;-29
2022/10/25 10:58:15;;;;;;;;;;;;;;;29.58;28.73;100817.06;4983903;28;2078;-29
2022/10/25 11:00:47;;;;;;;;;;;;;;;29.60;28.64;100806.06;4976697;28;1125;-29
2022/10/25 11:03:31;;;;;;;;;;;;;;;29.78;27.91;100813.69;4959950;28;1106;-29
2022/10/25 11:05:57;;;;;;;;;;;;;;;29.76;28.17;100818.44;4976763;28;1423;-29
2022/10/25 11:08:22;;;;;;;;;;;;;;;29.66;28.41;100805.25;4945320;28;1891;-29
2022/10/25 11:10:48;;;;;;;;;;;;;;;29.67;28.48;100801.53;4963348;28;1134;-29
2022/10/25 11:13:19;;;;;;;;;;;;;;;29.90;27.58;100794.13;4986274;28;1105;-30
2022/10/25 11:15:45;;;;;;;;;;;;;;;29.82;28.01;100797.84;4959248;28;1138;-29
2022/10/25 11:18:10;;;;;;;;;;;;;;;29.85;27.89;100794.72;4976159;28;1554;-29
2022/10/25 11:20:44;;;;;;;;;;;;;;;29.74;27.81;100804.28;4959451;28;1153;-30
2022/10/25 11:23:12;;;;;;;;;;;;;;;29.94;27.41;100792.69;4971964;28;1389;-30
2022/10/25 11:25:38;;;;;;;;;;;;;;;29.93;27.26;100791.84;4971089;28;859;-29
2022/10/25 11:28:16;;;;;;;;;;;;;;;29.99;27.21;100781.25;4969845;28;2121;-29
2022/10/25 11:30:45;;;;;;;;;;;;;;;30.05;27.16;100781.28;4960437;28;1126;-30
2022/10/25 11:33:20;;;;;;;;;;;;;;;30.10;26.80;100779.81;4961074;28;1106;-32
2022/10/25 11:35:57;;;;;;;;;;;;;;;30.24;26.82;100778.03;4960341;28;1245;-30
2022/10/25 11:38:31;;;;;;;;;;;;;;;30.06;27.19;100780.22;4960807;28;987;-29
2022/10/25 11:41:15;;;;;;;;;;;;;;;30.14;26.97;100775.66;4961186;28;1145;-29
2022/10/25 11:43:45;;;;;;;;;;;;;;;30.18;26.93;100769.63;4961022;28;1149;-29
2022/10/25 11:46:13;;;;;;;;;;;;;;;30.20;26.70;100777.59;4961073;28;1113;-29
2022/10/25 11:48:42;;;;;;;;;;;;;;;30.09;26.84;100770.84;4959253;28;1961;-29
2022/10/25 11:51:07;;;;;;;;;;;;;;;30.23;26.74;100766.31;4960819;28;1164;-29
2022/10/25 11:53:39;;;;;;;;;;;;;;;29.75;25.38;100770.69;4960927;28;1018;-29
2022/10/25 11:56:17;;;;;;;;;;;;;;;29.90;26.30;100767.00;4960671;28;1880;-28
2022/10/25 11:58:56;;;;;;;;;;;;;;;29.93;26.97;100767.44;4946424;28;1104;-29
2022/10/25 12:01:24;;;;;;;;;;;;;;;30.04;26.72;100770.63;4959700;28;1133;-29
2022/10/25 12:04:02;;;;;;;;;;;;;;;30.15;26.72;100771.91;4959456;28;1398;-29
2022/10/25 12:06:36;;;;;;;;;;;;;;;30.14;26.66;100765.66;4960751;28;1153;-29
2022/10/25 12:09:02;;;;;;;;;;;;;;;30.25;26.74;100764.25;4960109;28;1964;-29
2022/10/25 12:11:31;;;;;;;;;;;;;;;30.25;26.82;100761.53;4969396;28;1232;-29
2022/10/25 12:14:00;;;;;;;;;;;;;;;30.21;27.13;100754.88;4962875;28;1145;-30
2022/10/25 12:16:25;;;;;;;;;;;;;;;30.29;26.96;100751.97;4958660;29;1206;-29
2022/10/25 12:19:12;;;;;;;;;;;;;;;30.37;27.02;100758.22;4959591;28;1166;-30
2022/10/25 12:21:40;;;;;;;;;;;;;;;30.60;26.66;100755.13;4959116;28;1158;-30
2022/10/25 12:24:06;;;;;;;;;;;;;;;30.73;26.46;100750.78;4959005;28;1158;-29
2022/10/25 12:26:34;;;;;;;;;;;;;;;30.83;26.77;100753.13;4959632;28;2006;-29
2022/10/25 12:29:01;;;;;;;;;;;;;;;31.35;26.17;100750.53;4959217;28;1910;-29
2022/10/25 12:31:27;;;;;;;;;;;;;;;31.24;26.56;100745.75;4959369;28;1164;-29
2022/10/25 12:33:54;;;;;;;;;;;;;;;31.00;27.63;100753.50;4959015;28;1126;-29
2022/10/25 12:36:22;;;;;;;;;;;;;;;30.97;28.36;100743.06;4958228;28;1102;-29
2022/10/25 12:38:47;;;;;;;;;;;;;;;30.87;27.58;100740.78;4959017;28;944;-28
2022/10/25 12:41:15;;;;;;;;;;;;;;;30.98;27.91;100744.75;4959779;28;1173;-29
2022/10/25 12:43:42;;;;;;;;;;;;;;;30.81;27.60;100745.16;4944103;28;1039;-30
2022/10/25 12:46:26;;;;;;;;;;;;;;;30.90;28.01;100753.94;4946142;28;1249;-30
2022/10/25 12:49:10;;;;;;;;;;;;;;;30.97;28.10;100741.19;4959773;28;1891;-29
2022/10/25 12:51:35;;;;;;;;;;;;;;;30.97;28.22;100745.78;4945508;28;1118;-30